createdAt,value
2023-01-27T00:02:04.630Z,101589.47
2023-01-27T00:04:31.001Z,101587.63
2023-01-27T00:07:00.364Z,101595.28
2023-01-27T00:09:44.062Z,101590.66
2023-01-27T00:12:38.153Z,101589.34
2023-01-27T00:15:06.111Z,101586.28
2023-01-27T00:17:34.951Z,101588.00
2023-01-27T00:20:03.838Z,101584.59
2023-01-27T00:22:50.861Z,101583.16
2023-01-27T00:25:17.709Z,101583.38
2023-01-27T00:27:45.187Z,101588.13
2023-01-27T00:30:18.045Z,101594.56
2023-01-27T00:33:05.512Z,101587.78
2023-01-27T00:35:33.014Z,101582.31
2023-01-27T00:38:00.305Z,101590.69
2023-01-27T00:40:27.494Z,101589.84
2023-01-27T00:42:56.124Z,101595.91
2023-01-27T00:45:41.778Z,101598.94
2023-01-27T00:48:10.535Z,101601.38
2023-01-27T00:50:38.597Z,101599.44
2023-01-27T00:53:06.660Z,101600.44
2023-01-27T00:55:34.401Z,101601.13
2023-01-27T00:58:07.145Z,101595.78
2023-01-27T01:00:36.823Z,101597.22
2023-01-27T01:03:06.872Z,101596.66
2023-01-27T01:05:34.384Z,101600.56
2023-01-27T01:08:04.665Z,101608.69
2023-01-27T01:10:32.385Z,101609.03
2023-01-27T01:12:59.749Z,101611.59
2023-01-27T01:15:27.063Z,101611.34
2023-01-27T01:17:57.343Z,101614.91
2023-01-27T01:20:29.612Z,101624.38
2023-01-27T01:23:18.133Z,101629.59
2023-01-27T01:25:52.414Z,101631.91
2023-01-27T01:28:21.838Z,101634.94
2023-01-27T01:30:48.965Z,101630.44
2023-01-27T01:33:20.117Z,101633.59
2023-01-27T01:35:47.631Z,101634.47
2023-01-27T01:38:15.788Z,101635.19
2023-01-27T01:40:46.833Z,101638.97
2023-01-27T01:43:17.598Z,101641.03
2023-01-27T01:45:48.413Z,101639.56
2023-01-27T01:48:37.365Z,101641.78
2023-01-27T01:51:19.063Z,101637.38
2023-01-27T01:54:05.772Z,101637.16
2023-01-27T01:56:46.642Z,101632.28
2023-01-27T01:59:19.316Z,101634.69
2023-01-27T02:01:46.159Z,101637.16
2023-01-27T02:04:17.304Z,101633.72
2023-01-27T02:06:59.600Z,101635.44
2023-01-27T02:09:27.413Z,101634.59
2023-01-27T02:11:54.142Z,101640.81
2023-01-27T02:14:20.873Z,101638.97
2023-01-27T02:16:47.537Z,101639.94
2023-01-27T02:19:30.639Z,101643.13
2023-01-27T02:21:57.870Z,101643.22
2023-01-27T02:24:31.113Z,101638.09
2023-01-27T02:26:59.037Z,101639.47
2023-01-27T02:29:25.797Z,101644.69
2023-01-27T02:31:52.661Z,101641.50
2023-01-27T02:34:23.660Z,101647.50
2023-01-27T02:36:52.846Z,101640.69
2023-01-27T02:39:21.999Z,101639.72
2023-01-27T02:42:00.332Z,101646.63
2023-01-27T02:44:26.683Z,101631.81
2023-01-27T02:46:53.217Z,101641.75
2023-01-27T02:49:20.015Z,101638.97
2023-01-27T02:51:46.376Z,101646.88
2023-01-27T02:54:12.849Z,101646.50
2023-01-27T02:56:39.239Z,101644.06
2023-01-27T02:59:05.625Z,101647.97
2023-01-27T03:01:32.735Z,101651.34
2023-01-27T03:03:59.516Z,101648.81
2023-01-27T03:06:26.323Z,101647.97
2023-01-27T03:09:06.811Z,101651.47
2023-01-27T03:11:51.993Z,101662.19
2023-01-27T03:14:18.454Z,101655.50
2023-01-27T03:17:05.657Z,101653.91
2023-01-27T03:19:31.973Z,101660.59
2023-01-27T03:22:01.704Z,101659.25
2023-01-27T03:24:28.110Z,101655.38
2023-01-27T03:26:54.513Z,101662.22
2023-01-27T03:29:41.389Z,101656.94
2023-01-27T03:32:07.753Z,101659.25
2023-01-27T03:34:34.130Z,101659.88
2023-01-27T03:37:19.274Z,101659.03
2023-01-27T03:40:07.750Z,101657.06
2023-01-27T03:42:53.109Z,101661.81
2023-01-27T03:45:38.538Z,101665.25
2023-01-27T03:48:08.127Z,101666.81
2023-01-27T03:50:38.058Z,101669.72
2023-01-27T03:53:07.020Z,101661.13
2023-01-27T03:55:38.647Z,101672.78
2023-01-27T03:58:20.607Z,101678.97
2023-01-27T04:00:49.268Z,101668.75
2023-01-27T04:03:34.325Z,101664.38
2023-01-27T04:06:27.404Z,101673.84
2023-01-27T04:08:54.260Z,101666.31
2023-01-27T04:11:42.611Z,101671.19
2023-01-27T04:14:09.719Z,101671.66
2023-01-27T04:16:39.103Z,101666.06
2023-01-27T04:19:08.134Z,101668.97
2023-01-27T04:21:35.504Z,101668.75
2023-01-27T04:24:05.139Z,101667.41
2023-01-27T04:26:41.681Z,101669.72
2023-01-27T04:29:08.508Z,101668.03
2023-01-27T04:31:35.405Z,101672.88
2023-01-27T04:34:02.375Z,101676.53
2023-01-27T04:36:34.836Z,101678.47
2023-01-27T04:39:02.841Z,101670.19
2023-01-27T04:41:29.572Z,101674.25
2023-01-27T04:43:56.131Z,101675.56
2023-01-27T04:46:26.168Z,101677.63
2023-01-27T04:48:53.866Z,101681.06
2023-01-27T04:51:25.246Z,101682.41
2023-01-27T04:53:53.261Z,101683.97
2023-01-27T04:56:41.225Z,101689.56
2023-01-27T04:59:10.946Z,101693.22
2023-01-27T05:01:41.036Z,101686.53
2023-01-27T05:04:12.400Z,101696.63
2023-01-27T05:06:40.021Z,101699.41
2023-01-27T05:09:09.384Z,101697.94
2023-01-27T05:11:37.430Z,101698.19
2023-01-27T05:14:06.887Z,101700.63
2023-01-27T05:16:33.318Z,101712.69
2023-01-27T05:18:59.836Z,101710.97
2023-01-27T05:21:38.080Z,101705.84
2023-01-27T05:24:04.573Z,101715.69
2023-01-27T05:26:31.076Z,101714.72
2023-01-27T05:28:58.440Z,101711.06
2023-01-27T05:31:34.348Z,101713.53
2023-01-27T05:34:01.623Z,101711.94
2023-01-27T05:36:30.423Z,101713.53
2023-01-27T05:38:58.398Z,101713.63
2023-01-27T05:41:24.834Z,101717.28
2023-01-27T05:43:52.529Z,101717.41
2023-01-27T05:46:20.427Z,101717.06
2023-01-27T05:48:48.113Z,101724.34
2023-01-27T05:51:15.635Z,101726.53
2023-01-27T05:53:42.383Z,101727.13
2023-01-27T05:56:10.466Z,101728.34
2023-01-27T05:58:38.604Z,101728.59
2023-01-27T06:01:09.166Z,101733.25
2023-01-27T06:03:35.759Z,101745.41
2023-01-27T06:06:02.705Z,101733.47
2023-01-27T06:08:29.404Z,101727.75
2023-01-27T06:10:56.208Z,101741.84
2023-01-27T06:13:25.279Z,101733.47
2023-01-27T06:15:51.655Z,101724.94
2023-01-27T06:18:21.400Z,101729.34
2023-01-27T06:20:48.024Z,101730.22
2023-01-27T06:23:15.722Z,101739.31
2023-01-27T06:25:46.247Z,101731.28
2023-01-27T06:28:31.409Z,101726.91
2023-01-27T06:31:04.396Z,101730.81
2023-01-27T06:33:30.793Z,101734.69
2023-01-27T06:36:05.159Z,101739.81
2023-01-27T06:38:40.088Z,101736.28
2023-01-27T06:41:18.777Z,101736.78
2023-01-27T06:43:45.184Z,101745.16
2023-01-27T06:46:13.948Z,101736.63
2023-01-27T06:48:40.589Z,101742.13
2023-01-27T06:51:07.058Z,101743.59
2023-01-27T06:53:34.728Z,101744.94
2023-01-27T06:56:01.518Z,101750.50
2023-01-27T06:58:28.706Z,101753.81
2023-01-27T07:01:00.974Z,101750.00
2023-01-27T07:03:27.445Z,101752.09
2023-01-27T07:05:53.843Z,101751.97
2023-01-27T07:08:53.566Z,101753.06
2023-01-27T07:11:25.289Z,101752.44
2023-01-27T07:13:54.699Z,101759.16
2023-01-27T07:16:26.918Z,101757.44
2023-01-27T07:18:53.268Z,101760.25
2023-01-27T07:21:19.822Z,101763.16
2023-01-27T07:23:58.470Z,101758.44
2023-01-27T07:26:32.088Z,101770.25
2023-01-27T07:29:16.791Z,101769.03
2023-01-27T07:31:44.861Z,101773.38
2023-01-27T07:34:39.616Z,101777.41
2023-01-27T07:37:29.267Z,101774.25
2023-01-27T07:40:14.850Z,101782.75
2023-01-27T07:43:15.826Z,101784.09
2023-01-27T07:46:00.795Z,101785.22
2023-01-27T07:48:56.097Z,101782.63
2023-01-27T07:51:42.236Z,101780.47
2023-01-27T07:54:27.457Z,101778.28
2023-01-27T07:57:12.824Z,101783.63
2023-01-27T08:00:18.679Z,101789.72
2023-01-27T08:03:05.971Z,101792.63
2023-01-27T08:05:34.595Z,101788.88
2023-01-27T08:08:20.951Z,101791.53
2023-01-27T08:10:51.420Z,101790.31
2023-01-27T08:13:21.039Z,101789.22
2023-01-27T08:16:03.460Z,101788.97
2023-01-27T08:18:41.291Z,101800.44
2023-01-27T08:21:41.610Z,101790.59
2023-01-27T08:24:10.302Z,101795.56
2023-01-27T08:26:36.638Z,101798.69
2023-01-27T08:29:03.003Z,101790.72
2023-01-27T08:31:29.393Z,101789.00
2023-01-27T08:33:55.843Z,101794.84
2023-01-27T08:36:22.961Z,101798.84
2023-01-27T08:38:55.951Z,101801.19
2023-01-27T08:41:23.817Z,101807.63
2023-01-27T08:43:50.238Z,101801.31
2023-01-27T08:46:17.212Z,101807.50
2023-01-27T08:48:45.248Z,101806.03
2023-01-27T08:51:13.048Z,101803.50
2023-01-27T08:53:39.448Z,101802.28
2023-01-27T08:56:07.566Z,101804.34
2023-01-27T08:58:34.616Z,101801.91
2023-01-27T09:01:04.774Z,101813.97
2023-01-27T09:03:31.629Z,101815.66
2023-01-27T09:06:01.709Z,101798.13
2023-01-27T09:08:29.680Z,101794.72
2023-01-27T09:10:56.053Z,101795.94
2023-01-27T09:13:22.668Z,101799.34
2023-01-27T09:15:52.047Z,101814.44
2023-01-27T09:18:18.650Z,101810.69
2023-01-27T09:20:47.412Z,101813.22
2023-01-27T09:23:13.905Z,101815.53
2023-01-27T09:25:40.396Z,101813.59
2023-01-27T09:28:09.920Z,101810.16
2023-01-27T09:30:36.514Z,101813.34
2023-01-27T09:33:04.652Z,101812.59
2023-01-27T09:35:35.159Z,101811.63
2023-01-27T09:38:03.335Z,101820.91
2023-01-27T09:40:52.714Z,101827.47
2023-01-27T09:43:37.869Z,101822.81
2023-01-27T09:46:14.795Z,101827.47
2023-01-27T09:48:44.440Z,101837.22
2023-01-27T09:51:31.621Z,101836.97
2023-01-27T09:54:04.786Z,101843.03
2023-01-27T09:56:37.078Z,101845.59
2023-01-27T09:59:04.816Z,101850.94
2023-01-27T10:01:42.347Z,101850.03
2023-01-27T10:04:11.697Z,101856.63
2023-01-27T10:06:47.673Z,101858.38
2023-01-27T10:09:23.332Z,101865.44
2023-01-27T10:11:52.674Z,101865.81
2023-01-27T10:14:38.440Z,101859.38
2023-01-27T10:17:10.864Z,101874.50
2023-01-27T10:19:47.548Z,101869.00
2023-01-27T10:22:30.151Z,101870.72
2023-01-27T10:25:28.843Z,101860.22
2023-01-27T10:27:58.845Z,101870.06
2023-01-27T10:30:33.670Z,101869.69
2023-01-27T10:33:09.197Z,101866.13
2023-01-27T10:35:44.530Z,101868.44
2023-01-27T10:38:18.040Z,101864.16
2023-01-27T10:40:52.635Z,101871.00
2023-01-27T10:43:39.302Z,101861.25
2023-01-27T10:46:21.115Z,101867.63
2023-01-27T10:48:50.516Z,101869.09
2023-01-27T10:51:17.172Z,101863.81
2023-01-27T10:53:49.771Z,101859.91
2023-01-27T10:56:32.548Z,101861.38
2023-01-27T10:59:05.068Z,101864.56
2023-01-27T11:01:51.767Z,101858.34
2023-01-27T11:04:23.922Z,101865.75
2023-01-27T11:06:51.635Z,101867.66
2023-01-27T11:09:27.342Z,101860.38
2023-01-27T11:11:54.925Z,101855.78
2023-01-27T11:14:22.677Z,101867.88
2023-01-27T11:16:50.911Z,101860.03
2023-01-27T11:19:29.294Z,101859.78
2023-01-27T11:22:07.197Z,101851.59
2023-01-27T11:24:42.371Z,101849.78
2023-01-27T11:27:16.605Z,101851.34
2023-01-27T11:29:48.745Z,101816.53
2023-01-27T11:32:34.486Z,101844.00
2023-01-27T11:35:05.734Z,101839.34
2023-01-27T11:37:37.469Z,101843.09
2023-01-27T11:40:04.608Z,101842.03
2023-01-27T11:42:33.463Z,101841.03
2023-01-27T11:45:00.770Z,101837.31
2023-01-27T11:47:29.595Z,101841.09
2023-01-27T11:49:56.393Z,101838.69
2023-01-27T11:52:29.582Z,101833.28
2023-01-27T11:55:00.777Z,101839.72
2023-01-27T11:57:30.483Z,101838.44
2023-01-27T12:00:12.825Z,101835.41
2023-01-27T12:02:44.472Z,101830.44
2023-01-27T12:05:15.197Z,101831.16
2023-01-27T12:07:41.539Z,101833.66
2023-01-27T12:10:28.072Z,101823.75
2023-01-27T12:12:55.136Z,101837.19
2023-01-27T12:15:22.436Z,101828.03
2023-01-27T12:17:51.295Z,101817.44
2023-01-27T12:20:36.630Z,101814.06
2023-01-27T12:23:23.272Z,101818.72
2023-01-27T12:25:54.955Z,101818.22
2023-01-27T12:28:27.535Z,101807.53
2023-01-27T12:30:56.360Z,101803.59
2023-01-27T12:33:31.771Z,101799.66
2023-01-27T12:36:00.619Z,101804.22
2023-01-27T12:38:31.520Z,101808.16
2023-01-27T12:41:02.653Z,101811.25
2023-01-27T12:43:29.102Z,101763.03
2023-01-27T12:46:08.174Z,101799.38
2023-01-27T12:48:43.929Z,101792.06
2023-01-27T12:51:19.755Z,101785.00
2023-01-27T12:53:47.704Z,101796.69
2023-01-27T12:56:18.373Z,101790.53
2023-01-27T12:58:54.111Z,101782.06
2023-01-27T13:01:41.326Z,101783.38
2023-01-27T13:04:16.785Z,101781.47
2023-01-27T13:06:47.418Z,101786.31
2023-01-27T13:09:36.899Z,101779.97
2023-01-27T13:12:16.810Z,101774.84
2023-01-27T13:14:43.602Z,101782.66
2023-01-27T13:17:28.950Z,101791.41
2023-01-27T13:19:58.323Z,101798.00
2023-01-27T13:22:26.613Z,101790.78
2023-01-27T13:24:56.862Z,101795.88
2023-01-27T13:27:24.522Z,101795.66
2023-01-27T13:30:01.077Z,101793.91
2023-01-27T13:32:30.690Z,101795.53
2023-01-27T13:35:05.392Z,101804.91
2023-01-27T13:37:34.057Z,101813.50
2023-01-27T13:40:09.109Z,101811.72
2023-01-27T13:42:40.211Z,101811.63
2023-01-27T13:45:18.350Z,101811.78
2023-01-27T13:47:53.371Z,101816.75
2023-01-27T13:50:30.073Z,101829.47
2023-01-27T13:52:59.661Z,101822.44
2023-01-27T13:55:41.323Z,101827.38
2023-01-27T13:58:26.775Z,101819.44
2023-01-27T14:01:16.449Z,101833.13
2023-01-27T14:03:49.279Z,101834.81
2023-01-27T14:06:36.225Z,101828.81
2023-01-27T14:09:14.517Z,101827.75
2023-01-27T14:11:51.215Z,101830.13
2023-01-27T14:14:58.143Z,101829.59
2023-01-27T14:17:54.745Z,101837.00
2023-01-27T14:20:29.820Z,101835.75
2023-01-27T14:23:16.217Z,101829.00
2023-01-27T14:25:52.416Z,101842.81
2023-01-27T14:28:18.755Z,101837.41
2023-01-27T14:30:48.047Z,101839.16
2023-01-27T14:33:20.362Z,101847.22
2023-01-27T14:35:48.956Z,101832.47
2023-01-27T14:38:25.569Z,101848.50
2023-01-27T14:41:15.621Z,101838.88
2023-01-27T14:43:42.048Z,101852.66
2023-01-27T14:46:17.620Z,101853.16
2023-01-27T14:49:01.160Z,101850.84
2023-01-27T14:51:33.647Z,101852.03
2023-01-27T14:54:28.081Z,101857.72
2023-01-27T14:57:13.271Z,101852.59
2023-01-27T14:59:42.602Z,101859.53
2023-01-27T15:02:11.441Z,101847.91
2023-01-27T15:04:50.353Z,101856.28
2023-01-27T15:07:33.620Z,101866.31
2023-01-27T15:10:06.023Z,101866.56
2023-01-27T15:12:48.176Z,101868.25
2023-01-27T15:15:20.794Z,101873.63
2023-01-27T15:18:06.049Z,101882.06
2023-01-27T15:20:32.434Z,101881.56
2023-01-27T15:23:17.621Z,101887.06
2023-01-27T15:25:47.845Z,101883.63
2023-01-27T15:28:15.961Z,101904.22
2023-01-27T15:31:05.305Z,101888.75
2023-01-27T15:33:47.017Z,101897.16
2023-01-27T15:36:33.283Z,101896.47
2023-01-27T15:39:11.258Z,101905.84
2023-01-27T15:41:38.224Z,101904.41
2023-01-27T15:44:15.905Z,101910.72
2023-01-27T15:46:49.724Z,101908.81
2023-01-27T15:49:21.181Z,101913.81
2023-01-27T15:51:55.786Z,101911.50
2023-01-27T15:54:32.712Z,101917.25
2023-01-27T15:57:03.333Z,101917.13
2023-01-27T15:59:31.365Z,101918.72
2023-01-27T16:02:03.374Z,101905.94
2023-01-27T16:04:33.257Z,101928.25
2023-01-27T16:07:03.836Z,101928.00
2023-01-27T16:09:40.311Z,101920.06
2023-01-27T16:15:19.856Z,101925.94
2023-01-27T16:17:56.552Z,101937.63
2023-01-27T16:20:26.609Z,101939.59
2023-01-27T16:22:59.532Z,101939.59
2023-01-27T16:25:31.544Z,101948.72
2023-01-27T16:28:03.850Z,101953.97
2023-01-27T16:30:32.038Z,101955.56
2023-01-27T16:33:21.885Z,101952.63
2023-01-27T16:36:00.102Z,101952.53
2023-01-27T16:38:28.344Z,101951.41
2023-01-27T16:40:56.903Z,101958.63
2023-01-27T16:43:26.398Z,101956.78
2023-01-27T16:45:54.503Z,101965.44
2023-01-27T16:48:27.613Z,101962.63
2023-01-27T16:50:56.614Z,101965.69
2023-01-27T16:53:24.615Z,101970.41
2023-01-27T16:55:59.885Z,101978.72
2023-01-27T16:58:39.724Z,101979.56
2023-01-27T17:01:20.085Z,101986.63
2023-01-27T17:03:47.069Z,101987.63
2023-01-27T17:06:17.416Z,101987.25
2023-01-27T17:08:47.257Z,101985.91
2023-01-27T17:11:18.139Z,101983.72
2023-01-27T17:14:28.688Z,101984.94
2023-01-27T17:17:20.385Z,101991.41
2023-01-27T17:20:06.739Z,101992.22
2023-01-27T17:22:54.320Z,101996.53
2023-01-27T17:25:39.641Z,102005.53
2023-01-27T17:28:27.843Z,102006.50
2023-01-27T17:31:19.851Z,102003.41
2023-01-27T17:34:04.901Z,102012.16
2023-01-27T17:37:31.194Z,102009.50
2023-01-27T17:40:17.731Z,102012.63
2023-01-27T17:43:16.341Z,101997.78
2023-01-27T17:46:01.513Z,102004.13
2023-01-27T17:48:58.200Z,102003.38
2023-01-27T17:51:45.500Z,102001.56
2023-01-27T17:54:33.190Z,102007.06
2023-01-27T17:57:32.491Z,101999.31
2023-01-27T18:00:26.509Z,102007.28
2023-01-27T18:03:13.925Z,102009.84
2023-01-27T18:05:58.743Z,102010.06
2023-01-27T18:08:51.220Z,102007.84
2023-01-27T18:11:37.397Z,102012.84
2023-01-27T18:14:08.557Z,102008.53
2023-01-27T18:16:35.489Z,102018.94
2023-01-27T18:19:20.602Z,102020.88
2023-01-27T18:21:47.328Z,102016.88
2023-01-27T18:24:21.526Z,102025.16
2023-01-27T18:26:48.651Z,102019.25
2023-01-27T18:29:25.994Z,102026.13
2023-01-27T18:31:55.591Z,102033.50
2023-01-27T18:34:47.790Z,102032.41
2023-01-27T18:37:25.074Z,102029.97
2023-01-27T18:39:51.718Z,102034.09
2023-01-27T18:42:23.605Z,102035.09
2023-01-27T18:45:11.962Z,102034.50
2023-01-27T18:47:39.161Z,102035.44
2023-01-27T18:50:11.745Z,102035.81
2023-01-27T18:52:38.702Z,102034.63
2023-01-27T18:55:15.280Z,102039.00
2023-01-27T18:57:42.574Z,102036.19
2023-01-27T19:00:10.503Z,102035.31
2023-01-27T19:02:37.117Z,102048.47
2023-01-27T19:05:04.653Z,102039.81
2023-01-27T19:07:32.609Z,102048.22
2023-01-27T19:09:59.265Z,102054.72
2023-01-27T19:12:28.050Z,102047.72
2023-01-27T19:14:56.838Z,102058.19
2023-01-27T19:17:24.239Z,102054.06
2023-01-27T19:19:50.754Z,102055.28
2023-01-27T19:22:17.914Z,102053.22
2023-01-27T19:24:45.466Z,102048.94
2023-01-27T19:27:13.421Z,102050.03
2023-01-27T19:29:41.469Z,102058.94
2023-01-27T19:32:10.776Z,102049.66
2023-01-27T19:34:40.719Z,102054.06
2023-01-27T19:37:17.459Z,102054.31
2023-01-27T19:39:44.985Z,102050.03
2023-01-27T19:42:13.170Z,102051.88
2023-01-27T19:44:39.569Z,102039.94
2023-01-27T19:47:09.822Z,102048.22
2023-01-27T19:49:36.232Z,102047.47
2023-01-27T19:52:04.322Z,102050.91
2023-01-27T19:54:30.755Z,102050.03
2023-01-27T19:56:57.126Z,102052.16
2023-01-27T19:59:23.828Z,102025.84
2023-01-27T20:01:50.638Z,102070.84
2023-01-27T20:04:21.354Z,102068.16
2023-01-27T20:06:49.188Z,102039.13
2023-01-27T20:09:18.857Z,102066.34
2023-01-27T20:11:45.427Z,102076.84
2023-01-27T20:14:15.797Z,102067.47
2023-01-27T20:16:42.450Z,102074.25
2023-01-27T20:19:09.031Z,102083.75
2023-01-27T20:21:35.421Z,102089.47
2023-01-27T20:24:04.062Z,102088.91
2023-01-27T20:26:31.226Z,102084.47
2023-01-27T20:28:57.823Z,102090.97
2023-01-27T20:31:29.081Z,102081.41
2023-01-27T20:33:55.460Z,102092.84
2023-01-27T20:36:22.945Z,102082.81
2023-01-27T20:38:52.057Z,102086.69
2023-01-27T20:41:26.361Z,102082.75
2023-01-27T20:43:57.016Z,102094.19
2023-01-27T20:46:23.968Z,102087.88
2023-01-27T20:48:50.340Z,102092.59
2023-01-27T20:51:16.708Z,102089.81
2023-01-27T20:53:45.670Z,102092.38
2023-01-27T20:56:16.538Z,102090.44
2023-01-27T20:58:42.956Z,102100.69
2023-01-27T21:01:16.765Z,102104.97
2023-01-27T21:03:43.792Z,102102.63
2023-01-27T21:06:11.320Z,102096.75
2023-01-27T21:08:38.059Z,102102.47
2023-01-27T21:11:05.571Z,102100.06
2023-01-27T21:13:32.195Z,102106.88
2023-01-27T21:16:00.803Z,102105.88
2023-01-27T21:18:28.592Z,102112.19
2023-01-27T21:20:55.801Z,102112.56
2023-01-27T21:23:23.218Z,102110.44
2023-01-27T21:25:52.709Z,102103.16
2023-01-27T21:28:19.441Z,102105.97
2023-01-27T21:30:46.262Z,102106.34
2023-01-27T21:33:13.796Z,102103.44
2023-01-27T21:35:42.084Z,102104.38
2023-01-27T21:38:08.596Z,102096.81
2023-01-27T21:40:35.285Z,102103.88
2023-01-27T21:43:21.880Z,102105.09
2023-01-27T21:45:58.155Z,102102.03
2023-01-27T21:48:24.535Z,102107.72
2023-01-27T21:50:51.434Z,102108.59
2023-01-27T21:53:17.781Z,102098.47
2023-01-27T21:55:44.152Z,102094.09
2023-01-27T21:58:10.499Z,102102.75
2023-01-27T22:00:40.335Z,102101.69
2023-01-27T22:03:07.866Z,102104.81
2023-01-27T22:05:35.835Z,102104.59
2023-01-27T22:08:02.375Z,102107.03
2023-01-27T22:10:29.502Z,102112.09
2023-01-27T22:12:56.758Z,102103.38
2023-01-27T22:15:23.754Z,102103.06
2023-01-27T22:17:50.307Z,102107.50
2023-01-27T22:20:17.205Z,102103.38
2023-01-27T22:22:44.470Z,102099.47
2023-01-27T22:25:15.806Z,102096.34
2023-01-27T22:27:43.100Z,102092.25
2023-01-27T22:30:12.588Z,102101.69
2023-01-27T22:32:39.026Z,102103.63
2023-01-27T22:35:05.935Z,102110.44
2023-01-27T22:37:33.240Z,102108.75
2023-01-27T22:39:59.564Z,102100.19
2023-01-27T22:42:25.931Z,102105.38
2023-01-27T22:44:55.171Z,102110.34
2023-01-27T22:47:22.149Z,102095.00
2023-01-27T22:49:48.591Z,102110.56
2023-01-27T22:52:16.840Z,102107.44
2023-01-27T22:54:44.026Z,102106.91
2023-01-27T22:57:10.386Z,102102.19
2023-01-27T22:59:36.800Z,102104.47
2023-01-27T23:02:03.139Z,102104.22
2023-01-27T23:04:29.487Z,102100.81
2023-01-27T23:06:55.803Z,102098.66
2023-01-27T23:09:22.306Z,102103.56
2023-01-27T23:11:50.896Z,102097.91
2023-01-27T23:14:18.137Z,102101.03
2023-01-27T23:16:45.812Z,102104.34
2023-01-27T23:19:14.438Z,102114.41
2023-01-27T23:21:40.831Z,102109.41
2023-01-27T23:24:07.842Z,102106.97
2023-01-27T23:26:34.254Z,102115.94
2023-01-27T23:29:00.556Z,102124.69
2023-01-27T23:31:27.052Z,102112.81
2023-01-27T23:33:53.458Z,102119.84
2023-01-27T23:36:22.751Z,102115.47
2023-01-27T23:38:49.144Z,102116.44
2023-01-27T23:41:18.487Z,102121.06
2023-01-27T23:43:45.388Z,102112.38
2023-01-27T23:46:12.783Z,102114.88
2023-01-27T23:48:39.405Z,102111.78
2023-01-27T23:51:06.728Z,102112.31
2023-01-27T23:53:33.073Z,102076.13
2023-01-27T23:55:59.704Z,102103.69
2023-01-27T23:58:26.644Z,102107.66
